createdAt,value
2023-05-03T00:03:31.653Z,3.70
2023-05-03T00:08:32.335Z,3.13
2023-05-03T00:13:34.374Z,3.83
2023-05-03T00:18:35.027Z,4.05
2023-05-03T00:23:35.669Z,4.63
2023-05-03T00:28:37.635Z,4.43
2023-05-03T00:33:38.949Z,4.13
2023-05-03T00:38:40.367Z,4.38
2023-05-03T00:43:42.387Z,4.05
2023-05-03T00:48:43.161Z,4.53
2023-05-03T00:53:44.241Z,4.47
2023-05-03T00:58:46.271Z,4.38
2023-05-03T01:03:47.484Z,5.68
2023-05-03T01:08:59.581Z,4.82
2023-05-03T01:14:07.346Z,4.82
2023-05-03T01:19:20.543Z,4.95
2023-05-03T01:24:25.116Z,5.32
2023-05-03T01:29:27.120Z,5.50
2023-05-03T01:34:34.752Z,5.00
2023-05-03T01:39:40.861Z,4.75
2023-05-03T01:44:44.859Z,3.33
2023-05-03T01:49:46.089Z,4.05
2023-05-03T01:54:46.752Z,3.35
2023-05-03T01:59:48.840Z,3.78
2023-05-03T02:04:49.732Z,3.25
2023-05-03T02:09:50.417Z,2.63
2023-05-03T02:14:52.581Z,3.33
2023-05-03T02:19:53.904Z,2.50
2023-05-03T02:24:54.552Z,2.35
2023-05-03T02:29:56.578Z,3.38
2023-05-03T02:34:58.044Z,2.60
2023-05-03T02:39:59.342Z,2.17
2023-05-03T02:45:01.464Z,2.20
2023-05-03T02:50:03.686Z,2.15
2023-05-03T02:55:09.652Z,2.28
2023-05-03T03:00:15.763Z,2.55
2023-05-03T03:05:17.726Z,2.40
2023-05-03T03:10:22.387Z,2.10
2023-05-03T03:15:24.562Z,2.70
2023-05-03T03:20:25.829Z,2.38
2023-05-03T03:25:26.733Z,2.78
2023-05-03T03:30:31.481Z,3.50
2023-05-03T03:35:49.725Z,4.15
2023-05-03T03:40:52.734Z,3.50
2023-05-03T03:45:55.273Z,3.47
2023-05-03T03:50:56.889Z,3.85
2023-05-03T03:56:03.579Z,2.78
2023-05-03T04:01:06.919Z,3.60
2023-05-03T04:06:07.691Z,3.42
2023-05-03T04:11:12.308Z,3.40
2023-05-03T04:16:19.140Z,3.70
2023-05-03T04:21:20.874Z,3.83
2023-05-03T04:26:31.417Z,3.78
2023-05-03T04:31:40.864Z,3.95
2023-05-03T04:36:42.323Z,4.05
2023-05-03T04:41:45.713Z,3.25
2023-05-03T04:46:50.731Z,3.10
2023-05-03T04:51:53.311Z,3.20
2023-05-03T04:56:54.401Z,2.90
2023-05-03T05:01:56.426Z,2.40
2023-05-03T05:06:59.363Z,3.00
2023-05-03T05:12:04.093Z,2.78
2023-05-03T05:17:11.644Z,2.80
2023-05-03T05:22:12.419Z,2.60
2023-05-03T05:27:21.677Z,2.22
2023-05-03T05:32:24.447Z,2.58
2023-05-03T05:37:27.458Z,2.22
2023-05-03T05:42:31.199Z,3.15
2023-05-03T05:47:33.580Z,2.20
2023-05-03T05:52:34.401Z,2.40
2023-05-03T05:57:36.218Z,1.52
2023-05-03T06:02:39.376Z,2.45
2023-05-03T06:07:40.644Z,2.53
2023-05-03T06:12:41.610Z,2.15
2023-05-03T06:17:49.496Z,2.40
2023-05-03T06:22:51.451Z,2.35
2023-05-03T06:27:52.351Z,2.53
2023-05-03T06:32:57.767Z,2.17
2023-05-03T06:37:58.579Z,2.75
2023-05-03T06:42:59.784Z,2.38
2023-05-03T06:48:11.250Z,1.83
2023-05-03T06:53:12.161Z,2.53
2023-05-03T06:58:12.959Z,2.53
2023-05-03T07:03:15.048Z,2.75
2023-05-03T07:08:15.881Z,2.75
2023-05-03T07:13:16.726Z,1.88
2023-05-03T07:18:18.751Z,2.10
2023-05-03T07:23:19.614Z,2.20
2023-05-03T07:28:20.434Z,2.80
2023-05-03T07:33:22.587Z,2.50
2023-05-03T07:38:23.337Z,3.00
2023-05-03T07:43:24.531Z,1.98
2023-05-03T07:48:27.182Z,2.50
2023-05-03T07:53:27.898Z,1.98
2023-05-03T07:58:39.011Z,1.83
2023-05-03T08:03:43.528Z,2.13
2023-05-03T08:08:44.607Z,2.50
2023-05-03T08:13:45.273Z,2.30
2023-05-03T08:18:47.715Z,2.25
2023-05-03T08:23:48.617Z,2.28
2023-05-03T08:28:49.389Z,2.83
2023-05-03T08:33:51.783Z,2.55
2023-05-03T08:38:52.434Z,2.28
2023-05-03T08:43:54.569Z,2.90
2023-05-03T08:48:56.702Z,2.70
2023-05-03T08:53:57.336Z,2.65
2023-05-03T08:59:01.415Z,2.20
2023-05-03T09:04:04.332Z,4.20
2023-05-03T09:09:07.563Z,2.25
2023-05-03T09:14:12.932Z,2.50
2023-05-03T09:19:16.376Z,2.10
2023-05-03T09:24:18.745Z,2.22
2023-05-03T09:29:30.003Z,2.22
2023-05-03T09:34:32.521Z,3.00
2023-05-03T09:39:34.672Z,2.13
2023-05-03T09:44:42.794Z,2.72
2023-05-03T09:49:45.421Z,2.35
2023-05-03T09:54:47.593Z,2.33
2023-05-03T09:59:50.804Z,2.67
2023-05-03T10:04:56.624Z,2.70
2023-05-03T10:09:58.805Z,2.78
2023-05-03T10:15:01.977Z,2.35
2023-05-03T10:20:14.066Z,2.78
2023-05-03T10:25:16.131Z,2.55
2023-05-03T10:30:29.229Z,2.90
2023-05-03T10:35:31.323Z,2.63
2023-05-03T10:40:44.575Z,1.92
2023-05-03T10:45:46.272Z,2.35
2023-05-03T10:50:51.006Z,2.53
2023-05-03T10:56:02.647Z,2.35
2023-05-03T11:01:04.680Z,2.30
2023-05-03T11:06:07.571Z,2.78
2023-05-03T11:11:09.543Z,2.30
2023-05-03T11:16:10.285Z,2.42
2023-05-03T11:21:13.606Z,2.10
2023-05-03T11:26:15.030Z,2.17
2023-05-03T11:31:16.088Z,2.00
2023-05-03T11:36:18.373Z,2.38
2023-05-03T11:41:19.313Z,2.33
2023-05-03T11:46:23.783Z,1.95
2023-05-03T11:51:27.202Z,1.80
2023-05-03T11:56:28.635Z,1.63
2023-05-03T12:01:30.683Z,2.15
2023-05-03T12:06:35.985Z,2.38
2023-05-03T12:11:43.671Z,2.00
2023-05-03T12:16:50.303Z,1.73
2023-05-03T12:22:04.056Z,2.00
2023-05-03T12:27:14.260Z,2.10
2023-05-03T12:32:15.531Z,1.60
2023-05-03T12:37:17.863Z,1.90
2023-05-03T12:42:21.956Z,1.92
2023-05-03T12:47:28.380Z,2.00
2023-05-03T12:57:37.259Z,1.65
2023-05-03T13:07:43.921Z,1.90
2023-05-03T13:12:45.000Z,2.33
2023-05-03T13:17:47.214Z,2.20
2023-05-03T13:22:50.280Z,1.67
2023-05-03T13:27:53.185Z,1.55
2023-05-03T13:32:53.874Z,2.30
2023-05-03T13:37:55.910Z,1.65
2023-05-03T13:42:56.621Z,1.52
2023-05-03T13:48:15.705Z,1.75
2023-05-03T13:53:19.383Z,2.15
2023-05-03T13:58:20.480Z,2.25
2023-05-03T14:03:21.306Z,2.08
2023-05-03T14:08:23.467Z,1.50
2023-05-03T14:13:24.902Z,1.80
2023-05-03T14:18:25.839Z,1.65
2023-05-03T14:23:27.913Z,2.20
2023-05-03T14:28:29.079Z,1.38
2023-05-03T14:33:29.732Z,1.77
2023-05-03T14:38:31.925Z,2.10
2023-05-03T14:43:33.097Z,1.50
2023-05-03T14:48:34.072Z,1.70
2023-05-03T14:53:37.192Z,1.52
2023-05-03T14:58:38.053Z,1.77
2023-05-03T15:03:38.961Z,2.05
2023-05-03T15:08:41.300Z,1.70
2023-05-03T15:13:42.197Z,1.77
2023-05-03T15:18:43.993Z,2.20
2023-05-03T15:23:46.022Z,1.15
2023-05-03T15:28:46.929Z,1.58
2023-05-03T15:33:47.629Z,1.50
2023-05-03T15:38:50.321Z,1.63
2023-05-03T15:43:51.226Z,1.90
2023-05-03T15:48:53.029Z,1.60
2023-05-03T15:53:55.217Z,1.40
2023-05-03T15:58:56.445Z,1.85
2023-05-03T16:03:57.154Z,1.38
2023-05-03T16:08:59.204Z,1.50
2023-05-03T16:13:59.871Z,1.52
2023-05-03T16:19:00.512Z,1.92
2023-05-03T16:24:03.389Z,4.53
2023-05-03T16:29:04.508Z,2.05
2023-05-03T16:34:05.221Z,1.67
2023-05-03T16:39:07.871Z,1.40
2023-05-03T16:44:09.088Z,1.80
2023-05-03T16:49:09.764Z,1.38
2023-05-03T16:54:11.969Z,1.33
2023-05-03T16:59:12.700Z,1.50
2023-05-03T17:04:13.575Z,1.20
2023-05-03T17:09:15.608Z,1.60
2023-05-03T17:14:18.981Z,1.52
2023-05-03T17:19:19.630Z,1.65
2023-05-03T17:24:23.332Z,1.45
2023-05-03T17:29:24.006Z,1.73
2023-05-03T17:34:25.013Z,1.38
2023-05-03T17:39:28.382Z,1.40
2023-05-03T17:44:29.069Z,1.58
2023-05-03T17:49:31.234Z,0.90
2023-05-03T17:54:35.099Z,1.50
2023-05-03T17:59:35.794Z,1.70
2023-05-03T18:04:36.461Z,1.45
2023-05-03T18:09:38.467Z,1.70
2023-05-03T18:14:41.279Z,1.52
2023-05-03T18:19:44.585Z,1.70
2023-05-03T18:24:46.636Z,2.20
2023-05-03T18:29:47.452Z,2.33
2023-05-03T18:34:48.118Z,2.20
2023-05-03T18:39:50.179Z,2.58
2023-05-03T18:44:50.826Z,2.10
2023-05-03T18:49:52.954Z,2.50
2023-05-03T18:54:56.587Z,2.80
2023-05-03T19:00:01.192Z,2.22
2023-05-03T19:05:11.614Z,2.35
2023-05-03T19:10:16.393Z,2.35
2023-05-03T19:15:17.154Z,2.42
2023-05-03T19:20:18.342Z,2.25
2023-05-03T19:25:20.770Z,2.67
2023-05-03T19:30:21.651Z,2.72
2023-05-03T19:35:22.331Z,2.50
2023-05-03T19:40:24.823Z,2.13
2023-05-03T19:45:25.662Z,1.88
2023-05-03T19:50:26.601Z,2.70
2023-05-03T19:55:28.680Z,2.17
2023-05-03T20:00:29.844Z,2.30
2023-05-03T20:05:30.988Z,2.30
2023-05-03T20:10:36.348Z,2.30
2023-05-03T20:15:37.611Z,2.50
2023-05-03T20:20:38.287Z,2.45
2023-05-03T20:25:40.286Z,2.50
2023-05-03T20:30:40.977Z,2.85
2023-05-03T20:35:41.693Z,2.70
2023-05-03T20:40:43.665Z,2.50
2023-05-03T20:45:44.329Z,3.10
2023-05-03T20:50:45.053Z,2.70
2023-05-03T20:55:47.092Z,2.85
2023-05-03T21:00:47.856Z,3.00
2023-05-03T21:05:49.222Z,3.05
2023-05-03T21:10:51.240Z,2.80
2023-05-03T21:15:51.986Z,2.97
2023-05-03T21:20:54.054Z,3.65
2023-05-03T21:25:56.502Z,3.80
2023-05-03T21:30:57.262Z,4.05
2023-05-03T21:35:57.949Z,4.65
2023-05-03T21:41:05.217Z,4.65
2023-05-03T21:46:07.834Z,4.18
2023-05-03T21:51:08.814Z,4.70
2023-05-03T21:56:10.794Z,4.78
2023-05-03T22:01:11.713Z,4.80
2023-05-03T22:06:12.649Z,5.30
2023-05-03T22:11:15.215Z,6.15
2023-05-03T22:16:16.057Z,5.15
2023-05-03T22:21:17.139Z,5.45
2023-05-03T22:26:19.131Z,5.18
2023-05-03T22:31:19.873Z,5.68
2023-05-03T22:36:20.693Z,5.28
2023-05-03T22:41:23.057Z,5.63
2023-05-03T22:46:23.974Z,5.50
2023-05-03T22:51:24.932Z,5.68
2023-05-03T22:56:27.315Z,5.43
2023-05-03T23:01:28.492Z,5.63
2023-05-03T23:06:29.199Z,5.30
2023-05-03T23:11:31.172Z,6.53
2023-05-03T23:16:31.873Z,5.93
2023-05-03T23:21:33.894Z,5.45
2023-05-03T23:26:35.899Z,6.30
2023-05-03T23:31:38.505Z,5.63
2023-05-03T23:36:39.640Z,6.47
2023-05-03T23:41:41.713Z,5.90
2023-05-03T23:46:42.395Z,6.13
2023-05-03T23:51:43.065Z,6.20
2023-05-03T23:56:45.089Z,5.70
